CLT TRACON Summary / KCLT TAF
CLT TRACON Summary:
A wedge front has stalled southwest of CLT and is only allowing a very slow improvement from ovc003-006 and 3-6SM surface visibility. Conditions will improve to SCT/BKN015-040 by 19-21z. The front will also trigger scatterd showers and isolated thunderstorms, a few possibly severe, over SC, mostly to the southwest and south of CLT. Cells will move east to southeast at 35-45kts. Surface winds will be northeast at 6-12kts. Flight Hazards in the TRACON airspace outside convection: LGT-MOD turbulence below 080 and LGT-MOD Rime/Mixed Icing above 090.

Updated:4/26/2015 12:52 PM
CLT Terminal Aerodrome Forecast:

FTUS42 KGSP 261826 AAA
TAFCLT
TAF AMD
KCLT 261826Z 2618/2718 04008KT P6SM BKN010 OVC020
     FM262200 03007G15KT P6SM SCT010 OVC022
     FM270000 03008KT P6SM OVC050
     FM270500 01003KT P6SM SCT060
     FM271500 35007KT P6SM FEW250=
CLT TRACON Area Remark:
IFR POSSIBLE N/S UNTIL 19z. ISOLATED TS POSSIBLE W/SW/S 19-00z.
Convective Gate Forecast / Collaborative Convective Forecast Product / Vertical Wind Profile
Convective Gate Forecast
SIGMETS/ Southeast Radar & Satellite Loops (click on image to enlarge)

Southeast Radar Loop

 



USA.gov is the U.S. government's official web portal to all federal, state and local government web resources and services.